Time,TemperatureF,DewpointF,PressureIn,WindDirection,WindDirectionDegrees,WindSpeedMPH,WindSpeedGustMPH,Humidity,HourlyPrecipIn,Conditions,Clouds,dailyrainin,SoftwareType,DateUTC
2013-02-07 00:00:00,40.1,22.9,30.10,NW,321,0.0,0.0,50,0.00,,,0.00,Wunderground v.1.15,2013-02-07 07:00:00,
2013-02-07 00:10:00,39.4,22.8,30.11,NW,322,0.0,0.0,51,0.00,,,0.00,Wunderground v.1.15,2013-02-07 07:10:00,
2013-02-07 00:20:00,38.9,22.8,30.11,NW,322,0.0,0.0,52,0.00,,,0.00,Wunderground v.1.15,2013-02-07 07:20:00,
2013-02-07 00:30:00,38.2,22.6,30.11,NW,322,0.0,0.0,53,0.00,,,0.00,Wunderground v.1.15,2013-02-07 07:30:00,
2013-02-07 00:40:00,37.6,22.4,30.11,NW,322,0.0,0.0,54,0.00,,,0.00,Wunderground v.1.15,2013-02-07 07:40:00,
2013-02-07 00:50:00,37.7,22.5,30.12,NW,322,0.0,0.0,54,0.00,,,0.00,Wunderground v.1.15,2013-02-07 07:50:00,
2013-02-07 00:55:00,37.8,23.1,30.12,NW,321,0.0,0.0,55,0.00,,,0.00,Wunderground v.1.15,2013-02-07 07:55:00,
2013-02-07 01:00:00,38.0,22.8,30.12,NW,322,0.0,0.0,54,0.00,,,0.00,Wunderground v.1.15,2013-02-07 08:00:00,
2013-02-07 01:10:00,38.1,23.3,30.13,NW,322,0.0,0.0,55,0.00,,,0.00,Wunderground v.1.15,2013-02-07 08:10:00,
2013-02-07 01:15:00,38.3,23.5,30.13,NNE,25,0.0,0.0,55,0.00,,,0.00,Wunderground v.1.15,2013-02-07 08:15:00,
2013-02-07 01:25:00,38.7,23.5,30.13,NNE,30,0.0,1.0,54,0.00,,,0.00,Wunderground v.1.15,2013-02-07 08:25:00,
2013-02-07 01:35:00,38.8,23.6,30.13,NNE,14,0.0,0.0,54,0.00,,,0.00,Wunderground v.1.15,2013-02-07 08:35:00,
2013-02-07 01:45:00,38.7,23.5,30.13,North,349,0.0,0.0,54,0.00,,,0.00,Wunderground v.1.15,2013-02-07 08:45:00,
2013-02-07 01:55:00,38.7,23.5,30.14,North,8,0.0,0.0,54,0.00,,,0.00,Wunderground v.1.15,2013-02-07 08:55:00,
2013-02-07 02:00:00,38.6,23.4,30.14,North,8,0.0,0.0,54,0.00,,,0.00,Wunderground v.1.15,2013-02-07 09:00:00,
2013-02-07 02:10:00,37.5,23.2,30.14,NNE,28,0.0,0.0,56,0.00,,,0.00,Wunderground v.1.15,2013-02-07 09:10:00,
2013-02-07 02:15:00,37.1,22.8,30.14,NNE,28,0.0,0.0,56,0.00,,,0.00,Wunderground v.1.15,2013-02-07 09:15:00,
2013-02-07 02:25:00,36.4,23.0,30.14,NE,46,0.0,0.0,58,0.00,,,0.00,Wunderground v.1.15,2013-02-07 09:25:00,
2013-02-07 02:30:00,36.0,23.0,30.14,NE,46,0.0,0.0,59,0.00,,,0.00,Wunderground v.1.15,2013-02-07 09:30:00,
2013-02-07 02:40:00,35.9,23.4,30.15,NE,46,0.0,0.0,60,0.00,,,0.00,Wunderground v.1.15,2013-02-07 09:40:00,
2013-02-07 02:50:00,36.5,23.5,30.15,NE,45,0.0,0.0,59,0.00,,,0.00,Wunderground v.1.15,2013-02-07 09:50:00,
2013-02-07 02:55:00,36.3,22.9,30.15,NE,47,0.0,0.0,58,0.00,,,0.00,Wunderground v.1.15,2013-02-07 09:55:00,
2013-02-07 03:00:00,35.8,22.9,30.15,NE,46,0.0,0.0,59,0.00,,,0.00,Wunderground v.1.15,2013-02-07 10:00:00,
2013-02-07 03:10:00,34.9,22.8,30.15,East,82,0.0,0.0,61,0.00,,,0.00,Wunderground v.1.15,2013-02-07 10:10:00,
2013-02-07 03:15:00,34.5,22.8,30.15,East,82,0.0,0.0,62,0.00,,,0.00,Wunderground v.1.15,2013-02-07 10:15:00,
2013-02-07 03:20:00,34.2,22.9,30.15,ESE,108,0.0,0.0,63,0.00,,,0.00,Wunderground v.1.15,2013-02-07 10:20:00,
2013-02-07 03:30:00,34.0,23.1,30.15,ESE,108,0.0,0.0,64,0.00,,,0.00,Wunderground v.1.15,2013-02-07 10:30:00,
2013-02-07 03:40:00,33.6,22.7,30.15,ESE,115,0.0,0.0,64,0.00,,,0.00,Wunderground v.1.15,2013-02-07 10:40:00,
2013-02-07 03:45:00,33.3,22.8,30.16,ESE,115,0.0,0.0,65,0.00,,,0.00,Wunderground v.1.15,2013-02-07 10:45:00,
2013-02-07 03:55:00,33.5,23.4,30.16,ESE,116,0.0,0.0,66,0.00,,,0.00,Wunderground v.1.15,2013-02-07 10:55:00,
2013-02-07 04:00:00,34.1,23.2,30.16,ESE,114,0.0,0.0,64,0.00,,,0.00,Wunderground v.1.15,2013-02-07 11:00:00,
2013-02-07 04:10:00,34.6,23.3,30.16,ESE,113,0.0,0.0,63,0.00,,,0.00,Wunderground v.1.15,2013-02-07 11:10:00,
2013-02-07 04:20:00,34.9,23.2,30.16,East,98,0.0,0.0,62,0.00,,,0.00,Wunderground v.1.15,2013-02-07 11:20:00,
2013-02-07 04:25:00,35.3,23.6,30.16,NE,36,0.0,0.0,62,0.00,,,0.00,Wunderground v.1.15,2013-02-07 11:25:00,
2013-02-07 04:35:00,36.3,24.1,30.17,NNE,16,1.0,1.0,61,0.00,,,0.00,Wunderground v.1.15,2013-02-07 11:35:00,
2013-02-07 04:45:00,36.2,24.0,30.17,NNE,26,0.0,1.0,61,0.00,,,0.00,Wunderground v.1.15,2013-02-07 11:45:00,
2013-02-07 04:55:00,36.3,23.7,30.17,North,9,0.0,0.0,60,0.00,,,0.00,Wunderground v.1.15,2013-02-07 11:55:00,
2013-02-07 05:00:00,36.0,24.2,30.17,North,360,0.0,0.0,62,0.00,,,0.00,Wunderground v.1.15,2013-02-07 12:00:00,
2013-02-07 05:10:00,36.4,24.2,30.17,NNW,347,0.0,0.0,61,0.00,,,0.00,Wunderground v.1.15,2013-02-07 12:10:00,
2013-02-07 05:15:00,36.1,24.7,30.17,NE,46,0.0,0.0,63,0.00,,,0.00,Wunderground v.1.15,2013-02-07 12:15:00,
2013-02-07 05:20:00,36.2,24.8,30.17,NE,36,0.0,0.0,63,0.00,,,0.00,Wunderground v.1.15,2013-02-07 12:20:00,
2013-02-07 05:30:00,36.6,24.8,30.18,NNW,338,0.0,0.0,62,0.00,,,0.00,Wunderground v.1.15,2013-02-07 12:30:00,
2013-02-07 05:40:00,36.5,24.7,30.18,North,10,0.0,2.0,62,0.00,,,0.00,Wunderground v.1.15,2013-02-07 12:40:00,
2013-02-07 05:45:00,36.8,25.0,30.18,NNW,346,0.0,2.0,62,0.00,,,0.00,Wunderground v.1.15,2013-02-07 12:45:00,
2013-02-07 05:55:00,36.5,24.7,30.18,North,354,0.0,0.0,62,0.00,,,0.00,Wunderground v.1.15,2013-02-07 12:55:00,
2013-02-07 06:00:00,36.5,24.7,30.18,North,357,0.0,0.0,62,0.00,,,0.00,Wunderground v.1.15,2013-02-07 13:00:00,
2013-02-07 06:10:00,35.5,24.1,30.18,North,356,0.0,0.0,63,0.00,,,0.00,Wunderground v.1.15,2013-02-07 13:10:00,
2013-02-07 06:20:00,35.2,24.2,30.18,NE,38,0.0,0.0,64,0.00,,,0.00,Wunderground v.1.15,2013-02-07 13:20:00,
2013-02-07 06:30:00,34.5,23.9,30.19,NE,38,0.0,0.0,65,0.00,,,0.00,Wunderground v.1.15,2013-02-07 13:30:00,
2013-02-07 06:35:00,34.0,23.8,30.19,NE,38,0.0,0.0,66,0.00,,,0.00,Wunderground v.1.15,2013-02-07 13:35:00,
2013-02-07 06:45:00,33.1,24.0,30.20,NE,39,0.0,0.0,69,0.00,,,0.00,Wunderground v.1.15,2013-02-07 13:45:00,
2013-02-07 06:55:00,32.4,23.7,30.20,NE,38,0.0,0.0,70,0.00,,,0.00,Wunderground v.1.15,2013-02-07 13:55:00,
2013-02-07 07:00:00,32.1,23.8,30.20,NE,38,0.0,0.0,71,0.00,,,0.00,Wunderground v.1.15,2013-02-07 14:00:00,
2013-02-07 07:10:00,32.7,24.0,30.21,NE,41,0.0,0.0,70,0.00,,,0.00,Wunderground v.1.15,2013-02-07 14:10:00,
2013-02-07 07:15:00,33.1,24.4,30.21,NE,41,0.0,0.0,70,0.00,,,0.00,Wunderground v.1.15,2013-02-07 14:15:00,
2013-02-07 07:20:00,33.5,24.4,30.21,NE,41,0.0,0.0,69,0.00,,,0.00,Wunderground v.1.15,2013-02-07 14:20:00,
2013-02-07 07:30:00,33.5,24.1,30.22,NE,41,0.0,0.0,68,0.00,,,0.00,Wunderground v.1.15,2013-02-07 14:30:00,
2013-02-07 07:40:00,33.1,24.4,30.23,NE,41,0.0,0.0,70,0.00,,,0.00,Wunderground v.1.15,2013-02-07 14:40:00,
2013-02-07 07:45:00,33.8,24.7,30.23,NNW,337,0.0,1.0,69,0.00,,,0.00,Wunderground v.1.15,2013-02-07 14:45:00,
2013-02-07 07:50:00,34.9,25.0,30.23,NW,326,0.0,0.0,67,0.00,,,0.00,Wunderground v.1.15,2013-02-07 14:50:00,
2013-02-07 08:00:00,37.3,25.5,30.23,North,355,1.0,1.0,62,0.00,,,0.00,Wunderground v.1.15,2013-02-07 15:00:00,
2013-02-07 08:10:00,39.0,25.5,30.24,NNE,21,0.0,0.0,58,0.00,,,0.00,Wunderground v.1.15,2013-02-07 15:10:00,
2013-02-07 08:15:00,39.3,25.3,30.24,North,10,1.0,3.0,57,0.00,,,0.00,Wunderground v.1.15,2013-02-07 15:15:00,
2013-02-07 08:20:00,39.6,25.6,30.24,NNW,344,1.0,1.0,57,0.00,,,0.00,Wunderground v.1.15,2013-02-07 15:20:00,
2013-02-07 08:25:00,40.0,25.6,30.24,NW,323,0.0,2.0,56,0.00,,,0.00,Wunderground v.1.15,2013-02-07 15:25:00,
2013-02-07 08:35:00,40.4,25.5,30.25,NNW,345,2.0,2.0,55,0.00,,,0.00,Wunderground v.1.15,2013-02-07 15:35:00,
2013-02-07 08:45:00,40.9,25.5,30.25,NNE,13,2.0,3.0,54,0.00,,,0.00,Wunderground v.1.15,2013-02-07 15:45:00,
2013-02-07 08:55:00,41.6,25.7,30.25,NNW,347,2.0,2.0,53,0.00,,,0.00,Wunderground v.1.15,2013-02-07 15:55:00,
2013-02-07 09:00:00,41.8,25.4,30.26,North,1,2.0,2.0,52,0.00,,,0.00,Wunderground v.1.15,2013-02-07 16:00:00,
2013-02-07 09:10:00,42.3,25.9,30.26,NNW,342,3.0,5.0,52,0.00,,,0.00,Wunderground v.1.15,2013-02-07 16:10:00,
2013-02-07 09:20:00,42.9,25.5,30.26,NW,313,2.0,5.0,50,0.00,,,0.00,Wunderground v.1.15,2013-02-07 16:20:00,
2013-02-07 09:25:00,43.1,25.7,30.25,North,1,3.0,5.0,50,0.00,,,0.00,Wunderground v.1.15,2013-02-07 16:25:00,
2013-02-07 09:35:00,43.6,25.7,30.25,NNW,346,3.0,5.0,49,0.00,,,0.00,Wunderground v.1.15,2013-02-07 16:35:00,
2013-02-07 09:40:00,43.8,25.4,30.25,NNE,12,3.0,6.0,48,0.00,,,0.00,Wunderground v.1.15,2013-02-07 16:40:00,
2013-02-07 09:50:00,43.6,25.2,30.25,NW,325,4.0,4.0,48,0.00,,,0.00,Wunderground v.1.15,2013-02-07 16:50:00,
2013-02-07 10:00:00,44.1,25.6,30.25,NW,316,3.0,3.0,48,0.00,,,0.00,Wunderground v.1.15,2013-02-07 17:00:00,
2013-02-07 10:10:00,44.1,25.6,30.25,NE,39,4.0,4.0,48,0.00,,,0.00,Wunderground v.1.15,2013-02-07 17:10:00,
2013-02-07 10:15:00,44.5,25.5,30.25,North,8,4.0,4.0,47,0.00,,,0.00,Wunderground v.1.15,2013-02-07 17:15:00,
2013-02-07 10:25:00,45.2,25.6,30.25,NNE,18,2.0,3.0,46,0.00,,,0.00,Wunderground v.1.15,2013-02-07 17:25:00,
2013-02-07 10:35:00,45.3,25.7,30.25,NNE,27,4.0,4.0,46,0.00,,,0.00,Wunderground v.1.15,2013-02-07 17:35:00,
2013-02-07 10:45:00,45.6,25.5,30.25,NNE,28,3.0,3.0,45,0.00,,,0.00,Wunderground v.1.15,2013-02-07 17:45:00,
2013-02-07 11:00:00,46.3,25.6,30.25,West,269,2.0,2.0,44,0.00,,,0.00,Wunderground v.1.15,2013-02-07 18:00:00,
2013-02-07 11:10:00,47.0,25.6,30.25,WNW,301,2.0,4.0,43,0.00,,,0.00,Wunderground v.1.15,2013-02-07 18:10:00,
2013-02-07 11:20:00,47.2,25.8,30.25,NW,305,2.0,2.0,43,0.00,,,0.00,Wunderground v.1.15,2013-02-07 18:20:00,
2013-02-07 11:30:00,48.0,25.4,30.24,NNW,332,2.0,3.0,41,0.00,,,0.00,Wunderground v.1.15,2013-02-07 18:30:00,
2013-02-07 11:40:00,48.2,25.6,30.24,SW,225,1.0,1.0,41,0.00,,,0.00,Wunderground v.1.15,2013-02-07 18:40:00,
2013-02-07 11:50:00,48.9,25.6,30.24,WSW,237,2.0,3.0,40,0.00,,,0.00,Wunderground v.1.15,2013-02-07 18:50:00,
2013-02-07 12:00:00,50.6,25.9,30.23,NW,317,0.0,1.0,38,0.00,,,0.00,Wunderground v.1.15,2013-02-07 19:00:00,
2013-02-07 12:10:00,50.4,25.1,30.23,WNW,292,2.0,4.0,37,0.00,,,0.00,Wunderground v.1.15,2013-02-07 19:10:00,
2013-02-07 12:15:00,50.0,24.7,30.22,NNE,18,2.0,4.0,37,0.00,,,0.00,Wunderground v.1.15,2013-02-07 19:15:00,
2013-02-07 12:20:00,50.1,24.8,30.22,NNW,338,2.0,5.0,37,0.00,,,0.00,Wunderground v.1.15,2013-02-07 19:20:00,
2013-02-07 12:25:00,49.7,24.5,30.22,NW,305,2.0,5.0,37,0.00,,,0.00,Wunderground v.1.15,2013-02-07 19:25:00,
2013-02-07 12:35:00,49.9,23.3,30.22,NNW,328,2.0,2.0,35,0.00,,,0.00,Wunderground v.1.15,2013-02-07 19:35:00,
2013-02-07 12:45:00,49.8,23.9,30.21,NW,323,3.0,3.0,36,0.00,,,0.00,Wunderground v.1.15,2013-02-07 19:45:00,
2013-02-07 12:50:00,50.2,24.2,30.21,NNE,20,3.0,4.0,36,0.00,,,0.00,Wunderground v.1.15,2013-02-07 19:50:00,
2013-02-07 13:00:00,51.0,24.3,30.20,SSW,207,1.0,1.0,35,0.00,,,0.00,Wunderground v.1.15,2013-02-07 20:00:00,
2013-02-07 13:10:00,52.3,24.7,30.20,East,89,2.0,3.0,34,0.00,,,0.00,Wunderground v.1.15,2013-02-07 20:10:00,
2013-02-07 13:20:00,52.9,23.8,30.19,NNW,335,2.0,5.0,32,0.00,,,0.00,Wunderground v.1.15,2013-02-07 20:20:00,
2013-02-07 13:30:00,52.9,23.0,30.19,NW,309,2.0,2.0,31,0.00,,,0.00,Wunderground v.1.15,2013-02-07 20:30:00,
2013-02-07 13:35:00,52.4,22.6,30.19,North,355,3.0,3.0,31,0.00,,,0.00,Wunderground v.1.15,2013-02-07 20:35:00,
2013-02-07 13:45:00,52.0,22.3,30.19,NNE,14,4.0,4.0,31,0.00,,,0.00,Wunderground v.1.15,2013-02-07 20:45:00,
2013-02-07 13:50:00,52.3,21.7,30.19,WNW,301,3.0,3.0,30,0.00,,,0.00,Wunderground v.1.15,2013-02-07 20:50:00,
2013-02-07 13:55:00,52.2,20.9,30.18,NNW,330,3.0,3.0,29,0.00,,,0.00,Wunderground v.1.15,2013-02-07 20:55:00,
2013-02-07 14:00:00,52.3,20.9,30.18,NNE,23,3.0,3.0,29,0.00,,,0.00,Wunderground v.1.15,2013-02-07 21:00:00,
2013-02-07 14:10:00,52.8,21.4,30.18,NNE,26,3.0,3.0,29,0.00,,,0.00,Wunderground v.1.15,2013-02-07 21:10:00,
2013-02-07 14:15:00,53.0,21.6,30.18,West,264,2.0,3.0,29,0.00,,,0.00,Wunderground v.1.15,2013-02-07 21:15:00,
2013-02-07 14:20:00,53.2,21.7,30.18,NE,37,2.0,2.0,29,0.00,,,0.00,Wunderground v.1.15,2013-02-07 21:20:00,
2013-02-07 14:30:00,53.5,22.0,30.18,WNW,288,2.0,2.0,29,0.00,,,0.00,Wunderground v.1.15,2013-02-07 21:30:00,
2013-02-07 14:35:00,53.4,21.9,30.17,WNW,291,3.0,3.0,29,0.00,,,0.00,Wunderground v.1.15,2013-02-07 21:35:00,
2013-02-07 14:45:00,53.8,22.2,30.17,SW,224,2.0,4.0,29,0.00,,,0.00,Wunderground v.1.15,2013-02-07 21:45:00,
2013-02-07 14:55:00,55.0,20.7,30.17,WSW,249,2.0,2.0,26,0.00,,,0.00,Wunderground v.1.15,2013-02-07 21:55:00,
2013-02-07 15:00:00,54.8,19.6,30.17,NNE,26,2.0,2.0,25,0.00,,,0.00,Wunderground v.1.15,2013-02-07 22:00:00,
2013-02-07 15:10:00,55.1,17.9,30.17,NW,317,2.0,2.0,23,0.00,,,0.00,Wunderground v.1.15,2013-02-07 22:10:00,
2013-02-07 15:20:00,54.6,17.5,30.17,SSE,163,3.0,5.0,23,0.00,,,0.00,Wunderground v.1.15,2013-02-07 22:20:00,
2013-02-07 15:25:00,55.0,16.8,30.17,South,169,3.0,5.0,22,0.00,,,0.00,Wunderground v.1.15,2013-02-07 22:25:00,
2013-02-07 15:35:00,55.7,16.3,30.17,West,267,2.0,3.0,21,0.00,,,0.00,Wunderground v.1.15,2013-02-07 22:35:00,
2013-02-07 15:45:00,55.5,16.1,30.17,NW,304,2.0,4.0,21,0.00,,,0.00,Wunderground v.1.15,2013-02-07 22:45:00,
2013-02-07 15:55:00,55.2,14.8,30.17,NNW,338,2.0,2.0,20,0.00,,,0.00,Wunderground v.1.15,2013-02-07 22:55:00,
2013-02-07 16:00:00,55.2,14.8,30.17,NW,314,1.0,1.0,20,0.00,,,0.00,Wunderground v.1.15,2013-02-07 23:00:00,
2013-02-07 16:10:00,55.1,15.8,30.17,North,354,2.0,3.0,21,0.00,,,0.00,Wunderground v.1.15,2013-02-07 23:10:00,
2013-02-07 16:15:00,54.8,15.6,30.17,NW,326,2.0,4.0,21,0.00,,,0.00,Wunderground v.1.15,2013-02-07 23:15:00,
2013-02-07 16:20:00,54.5,15.3,30.17,SW,214,2.0,2.0,21,0.00,,,0.00,Wunderground v.1.15,2013-02-07 23:20:00,
2013-02-07 16:30:00,56.1,13.1,30.17,WSW,252,1.0,2.0,18,0.00,,,0.00,Wunderground v.1.15,2013-02-07 23:30:00,
2013-02-07 16:35:00,55.9,12.9,30.17,SW,233,2.0,3.0,18,0.00,,,0.00,Wunderground v.1.15,2013-02-07 23:35:00,
2013-02-07 16:45:00,55.7,12.8,30.17,South,186,2.0,5.0,18,0.00,,,0.00,Wunderground v.1.15,2013-02-07 23:45:00,
2013-02-07 16:50:00,55.7,12.8,30.18,WSW,252,2.0,2.0,18,0.00,,,0.00,Wunderground v.1.15,2013-02-07 23:50:00,
2013-02-07 17:00:00,54.8,14.4,30.17,SSE,156,2.0,2.0,20,0.00,,,0.00,Wunderground v.1.15,2013-02-08 00:00:00,
2013-02-07 17:10:00,54.8,13.3,30.17,SSW,208,1.0,1.0,19,0.00,,,0.00,Wunderground v.1.15,2013-02-08 00:10:00,
2013-02-07 17:15:00,54.6,14.3,30.18,SE,129,1.0,1.0,20,0.00,,,0.00,Wunderground v.1.15,2013-02-08 00:15:00,
2013-02-07 17:25:00,53.8,14.7,30.18,SSE,148,1.0,1.0,21,0.00,,,0.00,Wunderground v.1.15,2013-02-08 00:25:00,
2013-02-07 17:35:00,53.3,14.3,30.18,SE,131,1.0,1.0,21,0.00,,,0.00,Wunderground v.1.15,2013-02-08 00:35:00,
2013-02-07 17:45:00,52.2,14.4,30.18,SW,217,1.0,2.0,22,0.00,,,0.00,Wunderground v.1.15,2013-02-08 00:45:00,
2013-02-07 17:55:00,51.6,15.0,30.18,SSW,198,1.0,2.0,23,0.00,,,0.00,Wunderground v.1.15,2013-02-08 00:55:00,
2013-02-07 18:00:00,51.2,14.6,30.19,SSE,163,0.0,0.0,23,0.00,,,0.00,Wunderground v.1.15,2013-02-08 01:00:00,
2013-02-07 18:10:00,50.5,14.0,30.19,SSE,165,1.0,1.0,23,0.00,,,0.00,Wunderground v.1.15,2013-02-08 01:10:00,
2013-02-07 18:20:00,49.9,14.5,30.19,SE,134,0.0,0.0,24,0.00,,,0.00,Wunderground v.1.15,2013-02-08 01:20:00,
2013-02-07 18:25:00,49.6,14.2,30.19,SE,127,0.0,0.0,24,0.00,,,0.00,Wunderground v.1.15,2013-02-08 01:25:00,
2013-02-07 18:30:00,49.6,14.2,30.19,SE,128,0.0,0.0,24,0.00,,,0.00,Wunderground v.1.15,2013-02-08 01:30:00,
2013-02-07 18:35:00,49.5,14.1,30.20,SE,124,0.0,0.0,24,0.00,,,0.00,Wunderground v.1.15,2013-02-08 01:35:00,
2013-02-07 18:45:00,49.1,14.7,30.20,SE,129,0.0,1.0,25,0.00,,,0.00,Wunderground v.1.15,2013-02-08 01:45:00,
2013-02-07 18:55:00,48.6,15.2,30.20,ESE,121,1.0,1.0,26,0.00,,,0.00,Wunderground v.1.15,2013-02-08 01:55:00,
2013-02-07 19:00:00,47.9,15.5,30.21,ESE,121,0.0,0.0,27,0.00,,,0.00,Wunderground v.1.15,2013-02-08 02:00:00,
2013-02-07 19:10:00,47.0,15.5,30.21,ESE,121,0.0,0.0,28,0.00,,,0.00,Wunderground v.1.15,2013-02-08 02:10:00,
2013-02-07 19:15:00,46.7,16.1,30.21,ESE,121,0.0,0.0,29,0.00,,,0.00,Wunderground v.1.15,2013-02-08 02:15:00,
2013-02-07 19:25:00,46.1,15.6,30.21,SE,124,0.0,0.0,29,0.00,,,0.00,Wunderground v.1.15,2013-02-08 02:25:00,
2013-02-07 19:35:00,45.9,15.4,30.21,ESE,121,0.0,0.0,29,0.00,,,0.00,Wunderground v.1.15,2013-02-08 02:35:00,
2013-02-07 19:40:00,45.8,15.3,30.21,ESE,121,0.0,0.0,29,0.00,,,0.00,Wunderground v.1.15,2013-02-08 02:40:00,
2013-02-07 19:50:00,45.5,15.0,30.21,ESE,120,0.0,0.0,29,0.00,,,0.00,Wunderground v.1.15,2013-02-08 02:50:00,
2013-02-07 19:55:00,45.4,15.7,30.21,ESE,119,0.0,0.0,30,0.00,,,0.00,Wunderground v.1.15,2013-02-08 02:55:00,
2013-02-07 20:00:00,45.2,15.6,30.21,ESE,110,0.0,0.0,30,0.00,,,0.00,Wunderground v.1.15,2013-02-08 03:00:00,
2013-02-07 20:10:00,44.6,15.8,30.21,ESE,111,0.0,0.0,31,0.00,,,0.00,Wunderground v.1.15,2013-02-08 03:10:00,
2013-02-07 20:15:00,44.3,15.5,30.21,ESE,111,0.0,0.0,31,0.00,,,0.00,Wunderground v.1.15,2013-02-08 03:15:00,
2013-02-07 20:20:00,44.1,15.3,30.21,ESE,112,0.0,0.0,31,0.00,,,0.00,Wunderground v.1.15,2013-02-08 03:20:00,
2013-02-07 20:30:00,43.9,15.2,30.22,ESE,104,0.0,0.0,31,0.00,,,0.00,Wunderground v.1.15,2013-02-08 03:30:00,
2013-02-07 20:40:00,44.5,15.7,30.22,ENE,75,0.0,0.0,31,0.00,,,0.00,Wunderground v.1.15,2013-02-08 03:40:00,
2013-02-07 20:50:00,45.7,18.2,30.22,East,86,1.0,2.0,33,0.00,,,0.00,Wunderground v.1.15,2013-02-08 03:50:00,
2013-02-07 21:00:00,46.9,21.3,30.21,SE,136,4.0,6.0,36,0.00,,,0.00,Wunderground v.1.15,2013-02-08 04:00:00,
2013-02-07 21:10:00,47.1,21.5,30.21,East,84,4.0,4.0,36,0.00,,,0.00,Wunderground v.1.15,2013-02-08 04:10:00,
2013-02-07 21:15:00,46.9,22.0,30.22,East,86,3.0,4.0,37,0.00,,,0.00,Wunderground v.1.15,2013-02-08 04:15:00,
2013-02-07 21:25:00,46.5,22.2,30.22,SE,133,6.0,8.0,38,0.00,,,0.00,Wunderground v.1.15,2013-02-08 04:25:00,
2013-02-07 21:35:00,46.3,22.0,30.22,NE,46,6.0,6.0,38,0.00,,,0.00,Wunderground v.1.15,2013-02-08 04:35:00,
2013-02-07 21:45:00,46.1,21.9,30.22,ESE,119,5.0,11.0,38,0.00,,,0.00,Wunderground v.1.15,2013-02-08 04:45:00,
2013-02-07 21:55:00,46.2,21.3,30.22,ESE,108,6.0,15.0,37,0.00,,,0.00,Wunderground v.1.15,2013-02-08 04:55:00,
2013-02-07 22:00:00,46.3,21.4,30.22,SE,128,6.0,6.0,37,0.00,,,0.00,Wunderground v.1.15,2013-02-08 05:00:00,
2013-02-07 22:05:00,46.4,21.5,30.22,ENE,77,7.0,7.0,37,0.00,,,0.00,Wunderground v.1.15,2013-02-08 05:05:00,
2013-02-07 22:10:00,46.5,21.6,30.22,ESE,110,7.0,7.0,37,0.00,,,0.00,Wunderground v.1.15,2013-02-08 05:10:00,
2013-02-07 22:15:00,46.3,21.4,30.22,East,89,6.0,7.0,37,0.00,,,0.00,Wunderground v.1.15,2013-02-08 05:15:00,
2013-02-07 22:20:00,45.8,21.6,30.22,ESE,117,4.0,4.0,38,0.00,,,0.00,Wunderground v.1.15,2013-02-08 05:20:00,
2013-02-07 22:30:00,45.4,21.9,30.22,ENE,70,4.0,5.0,39,0.00,,,0.00,Wunderground v.1.15,2013-02-08 05:30:00,
2013-02-07 22:35:00,45.3,21.8,30.22,ESE,115,6.0,6.0,39,0.00,,,0.00,Wunderground v.1.15,2013-02-08 05:35:00,
2013-02-07 22:45:00,44.9,22.0,30.22,SSE,159,5.0,6.0,40,0.00,,,0.00,Wunderground v.1.15,2013-02-08 05:45:00,
2013-02-07 22:50:00,44.9,22.0,30.22,ESE,111,6.0,8.0,40,0.00,,,0.00,Wunderground v.1.15,2013-02-08 05:50:00,
2013-02-07 23:00:00,45.0,21.5,30.22,SSE,148,5.0,5.0,39,0.00,,,0.00,Wunderground v.1.15,2013-02-08 06:00:00,
2013-02-07 23:10:00,45.1,21.6,30.22,East,97,4.0,5.0,39,0.00,,,0.00,Wunderground v.1.15,2013-02-08 06:10:00,
2013-02-07 23:20:00,45.2,21.7,30.22,East,82,5.0,5.0,39,0.00,,,0.00,Wunderground v.1.15,2013-02-08 06:20:00,
2013-02-07 23:30:00,45.2,21.7,30.22,ESE,112,5.0,5.0,39,0.00,,,0.00,Wunderground v.1.15,2013-02-08 06:30:00,
2013-02-07 23:35:00,45.1,21.6,30.22,ESE,108,4.0,5.0,39,0.00,,,0.00,Wunderground v.1.15,2013-02-08 06:35:00,
2013-02-07 23:45:00,44.7,21.8,30.22,SE,125,3.0,5.0,40,0.00,,,0.00,Wunderground v.1.15,2013-02-08 06:45:00,
2013-02-07 23:50:00,44.7,21.8,30.22,SE,124,4.0,4.0,40,0.00,,,0.00,Wunderground v.1.15,2013-02-08 06:50:00,